sensor_id;sensor_type;location;lat;lon;timestamp;pressure;altitude;pressure_sealevel;temperature;humidity
44926;BME280;30662;51.210;7.656;2023-02-19T00:01:11;150577.00;;;7.09;100.00
44926;BME280;30662;51.210;7.656;2023-02-19T00:03:38;150571.94;;;7.07;100.00
44926;BME280;30662;51.210;7.656;2023-02-19T00:06:07;150571.94;;;7.07;100.00
44926;BME280;30662;51.210;7.656;2023-02-19T00:08:34;150585.84;;;7.13;100.00
44926;BME280;30662;51.210;7.656;2023-02-19T00:11:08;150597.22;;;7.17;100.00
44926;BME280;30662;51.210;7.656;2023-02-19T00:13:41;150589.63;;;7.14;100.00
44926;BME280;30662;51.210;7.656;2023-02-19T00:16:35;150616.16;;;7.25;100.00
44926;BME280;30662;51.210;7.656;2023-02-19T00:19:04;150578.28;;;7.10;100.00
44926;BME280;30662;51.210;7.656;2023-02-19T00:21:30;150611.09;;;7.23;100.00
44926;BME280;30662;51.210;7.656;2023-02-19T00:23:59;150588.38;;;7.14;100.00
44926;BME280;30662;51.210;7.656;2023-02-19T00:26:26;150587.13;;;7.13;100.00
44926;BME280;30662;51.210;7.656;2023-02-19T00:28:53;150584.59;;;7.12;100.00
44926;BME280;30662;51.210;7.656;2023-02-19T00:31:22;150585.84;;;7.13;100.00
44926;BME280;30662;51.210;7.656;2023-02-19T00:33:51;150577.00;;;7.09;100.00
44926;BME280;30662;51.210;7.656;2023-02-19T00:36:17;150585.84;;;7.13;100.00
44926;BME280;30662;51.210;7.656;2023-02-19T00:38:44;150565.66;;;7.05;100.00
44926;BME280;30662;51.210;7.656;2023-02-19T00:41:12;150570.69;;;7.07;100.00
44926;BME280;30662;51.210;7.656;2023-02-19T00:43:53;150560.63;;;7.03;100.00
44926;BME280;30662;51.210;7.656;2023-02-19T00:48:49;150604.78;;;7.21;100.00
44926;BME280;30662;51.210;7.656;2023-02-19T00:51:17;150599.75;;;7.18;100.00
44926;BME280;30662;51.210;7.656;2023-02-19T00:53:44;150585.84;;;7.13;100.00
44926;BME280;30662;51.210;7.656;2023-02-19T00:56:10;150593.41;;;7.16;100.00
44926;BME280;30662;51.210;7.656;2023-02-19T00:58:37;150588.38;;;7.14;100.00
44926;BME280;30662;51.210;7.656;2023-02-19T01:01:03;150575.72;;;7.09;100.00
44926;BME280;30662;51.210;7.656;2023-02-19T01:03:32;150584.59;;;7.12;100.00
44926;BME280;30662;51.210;7.656;2023-02-19T01:05:58;150595.97;;;7.17;100.00
44926;BME280;30662;51.210;7.656;2023-02-19T01:08:24;150598.50;;;7.18;100.00
44926;BME280;30662;51.210;7.656;2023-02-19T01:10:50;150578.28;;;7.10;100.00
44926;BME280;30662;51.210;7.656;2023-02-19T01:13:16;150589.63;;;7.14;100.00
44926;BME280;30662;51.210;7.656;2023-02-19T01:15:42;150607.31;;;7.22;100.00
44926;BME280;30662;51.210;7.656;2023-02-19T01:18:09;150578.28;;;7.10;100.00
44926;BME280;30662;51.210;7.656;2023-02-19T01:20:40;150587.13;;;7.13;100.00
44926;BME280;30662;51.210;7.656;2023-02-19T01:23:07;150578.28;;;7.10;100.00
44926;BME280;30662;51.210;7.656;2023-02-19T01:25:34;150561.88;;;7.03;100.00
44926;BME280;30662;51.210;7.656;2023-02-19T01:27:59;150589.63;;;7.14;100.00
44926;BME280;30662;51.210;7.656;2023-02-19T01:30:25;150584.59;;;7.12;100.00
44926;BME280;30662;51.210;7.656;2023-02-19T01:32:51;150590.88;;;7.15;100.00
44926;BME280;30662;51.210;7.656;2023-02-19T01:35:17;150584.59;;;7.12;100.00
44926;BME280;30662;51.210;7.656;2023-02-19T01:37:43;150631.28;;;7.31;100.00
44926;BME280;30662;51.210;7.656;2023-02-19T01:40:09;150623.72;;;7.28;100.00
44926;BME280;30662;51.210;7.656;2023-02-19T01:42:35;150601.00;;;7.19;100.00
44926;BME280;30662;51.210;7.656;2023-02-19T01:45:20;150582.06;;;7.11;100.00
44926;BME280;30662;51.210;7.656;2023-02-19T01:48:00;150587.13;;;7.13;100.00
44926;BME280;30662;51.210;7.656;2023-02-19T01:50:28;150579.56;;;7.10;100.00
44926;BME280;30662;51.210;7.656;2023-02-19T01:52:55;150583.34;;;7.12;100.00
44926;BME280;30662;51.210;7.656;2023-02-19T01:55:22;150584.59;;;7.12;100.00
44926;BME280;30662;51.210;7.656;2023-02-19T01:57:51;150592.16;;;7.15;100.00
44926;BME280;30662;51.210;7.656;2023-02-19T02:00:19;150617.44;;;7.26;100.00
44926;BME280;30662;51.210;7.656;2023-02-19T02:02:48;150594.66;;;7.16;100.00
44926;BME280;30662;51.210;7.656;2023-02-19T02:05:47;150570.69;;;7.07;100.00
44926;BME280;30662;51.210;7.656;2023-02-19T02:08:15;150582.06;;;7.11;100.00
44926;BME280;30662;51.210;7.656;2023-02-19T02:11:01;150585.84;;;7.13;100.00
44926;BME280;30662;51.210;7.656;2023-02-19T02:13:27;150621.22;;;7.27;100.00
44926;BME280;30662;51.210;7.656;2023-02-19T02:16:22;150598.50;;;7.18;100.00
44926;BME280;30662;51.210;7.656;2023-02-19T02:18:59;150585.84;;;7.13;100.00
44926;BME280;30662;51.210;7.656;2023-02-19T02:21:35;150579.56;;;7.10;100.00
44926;BME280;30662;51.210;7.656;2023-02-19T02:24:28;150595.97;;;7.17;100.00
44926;BME280;30662;51.210;7.656;2023-02-19T02:29:47;150579.56;;;7.10;100.00
44926;BME280;30662;51.210;7.656;2023-02-19T02:32:20;150583.34;;;7.12;100.00
44926;BME280;30662;51.210;7.656;2023-02-19T02:34:59;150589.63;;;7.14;100.00
44926;BME280;30662;51.210;7.656;2023-02-19T02:37:29;150568.19;;;7.06;100.00
44926;BME280;30662;51.210;7.656;2023-02-19T02:39:59;150573.22;;;7.08;100.00
44926;BME280;30662;51.210;7.656;2023-02-19T02:42:25;150601.00;;;7.19;100.00
44926;BME280;30662;51.210;7.656;2023-02-19T02:44:55;150579.56;;;7.10;100.00
44926;BME280;30662;51.210;7.656;2023-02-19T02:47:52;150579.56;;;7.10;100.00
44926;BME280;30662;51.210;7.656;2023-02-19T02:50:30;150570.69;;;7.07;100.00
44926;BME280;30662;51.210;7.656;2023-02-19T02:53:04;150618.69;;;7.26;100.00
44926;BME280;30662;51.210;7.656;2023-02-19T02:55:51;150588.38;;;7.14;100.00
44926;BME280;30662;51.210;7.656;2023-02-19T02:58:19;150569.44;;;7.06;100.00
44926;BME280;30662;51.210;7.656;2023-02-19T03:00:53;150589.63;;;7.14;100.00
44926;BME280;30662;51.210;7.656;2023-02-19T03:03:40;150588.38;;;7.14;100.00
44926;BME280;30662;51.210;7.656;2023-02-19T03:06:10;150553.00;;;7.00;100.00
44926;BME280;30662;51.210;7.656;2023-02-19T03:09:04;150575.72;;;7.09;100.00
44926;BME280;30662;51.210;7.656;2023-02-19T03:11:33;150565.66;;;7.05;100.00
44926;BME280;30662;51.210;7.656;2023-02-19T03:14:32;150561.88;;;7.03;100.00
44926;BME280;30662;51.210;7.656;2023-02-19T03:17:30;150565.66;;;7.05;100.00
44926;BME280;30662;51.210;7.656;2023-02-19T03:20:20;150583.34;;;7.12;100.00
44926;BME280;30662;51.210;7.656;2023-02-19T03:22:48;150577.00;;;7.09;100.00
44926;BME280;30662;51.210;7.656;2023-02-19T03:25:21;150584.59;;;7.12;100.00
44926;BME280;30662;51.210;7.656;2023-02-19T03:28:08;150569.44;;;7.06;100.00
44926;BME280;30662;51.210;7.656;2023-02-19T03:30:39;150566.91;;;7.05;100.00
44926;BME280;30662;51.210;7.656;2023-02-19T03:33:13;150609.81;;;7.23;100.00
44926;BME280;30662;51.210;7.656;2023-02-19T03:35:50;150602.28;;;7.19;100.00
44926;BME280;30662;51.210;7.656;2023-02-19T03:38:25;150590.88;;;7.15;100.00
44926;BME280;30662;51.210;7.656;2023-02-19T03:41:06;150590.88;;;7.15;100.00
44926;BME280;30662;51.210;7.656;2023-02-19T03:43:41;150575.72;;;7.09;100.00
44926;BME280;30662;51.210;7.656;2023-02-19T03:46:14;150570.69;;;7.07;100.00
44926;BME280;30662;51.210;7.656;2023-02-19T03:48:54;150597.22;;;7.17;100.00
44926;BME280;30662;51.210;7.656;2023-02-19T03:51:36;150580.81;;;7.11;100.00
44926;BME280;30662;51.210;7.656;2023-02-19T03:54:19;150569.44;;;7.06;100.00
44926;BME280;30662;51.210;7.656;2023-02-19T03:56:52;150561.88;;;7.03;100.00
44926;BME280;30662;51.210;7.656;2023-02-19T03:59:45;150541.63;;;6.95;100.00
44926;BME280;30662;51.210;7.656;2023-02-19T04:02:28;150564.41;;;7.04;100.00
44926;BME280;30662;51.210;7.656;2023-02-19T04:05:13;150547.97;;;6.98;100.00
44926;BME280;30662;51.210;7.656;2023-02-19T04:07:44;150523.97;;;6.88;100.00
44926;BME280;30662;51.210;7.656;2023-02-19T04:10:12;150577.00;;;7.09;100.00
44926;BME280;30662;51.210;7.656;2023-02-19T04:12:41;150580.81;;;7.11;100.00
44926;BME280;30662;51.210;7.656;2023-02-19T04:15:12;150555.53;;;7.01;100.00
44926;BME280;30662;51.210;7.656;2023-02-19T04:17:46;150539.13;;;6.94;100.00
44926;BME280;30662;51.210;7.656;2023-02-19T04:20:16;150550.50;;;6.99;100.00
44926;BME280;30662;51.210;7.656;2023-02-19T04:22:43;150540.38;;;6.95;100.00
44926;BME280;30662;51.210;7.656;2023-02-19T04:25:09;150532.81;;;6.91;100.00
44926;BME280;30662;51.210;7.656;2023-02-19T04:27:38;150545.47;;;6.97;100.00
44926;BME280;30662;51.210;7.656;2023-02-19T04:30:06;150555.53;;;7.01;100.00
44926;BME280;30662;51.210;7.656;2023-02-19T04:32:33;150515.16;;;6.84;100.00
44926;BME280;30662;51.210;7.656;2023-02-19T04:34:58;150502.50;;;6.79;100.00
44926;BME280;30662;51.210;7.656;2023-02-19T04:37:24;150492.44;;;6.75;100.00
44926;BME280;30662;51.210;7.656;2023-02-19T04:39:50;150523.97;;;6.88;100.00
44926;BME280;30662;51.210;7.656;2023-02-19T04:42:16;150516.41;;;6.85;100.00
44926;BME280;30662;51.210;7.656;2023-02-19T04:44:42;150539.13;;;6.94;100.00
44926;BME280;30662;51.210;7.656;2023-02-19T04:47:08;150554.28;;;7.00;100.00
44926;BME280;30662;51.210;7.656;2023-02-19T04:49:34;150517.66;;;6.85;100.00
44926;BME280;30662;51.210;7.656;2023-02-19T04:52:00;150529.03;;;6.90;100.00
44926;BME280;30662;51.210;7.656;2023-02-19T04:54:25;150520.19;;;6.86;100.00
44926;BME280;30662;51.210;7.656;2023-02-19T04:56:51;150505.03;;;6.80;100.00
44926;BME280;30662;51.210;7.656;2023-02-19T04:59:17;150529.03;;;6.90;100.00
44926;BME280;30662;51.210;7.656;2023-02-19T05:01:43;150530.31;;;6.90;100.00
44926;BME280;30662;51.210;7.656;2023-02-19T05:04:09;150520.19;;;6.86;100.00
44926;BME280;30662;51.210;7.656;2023-02-19T05:06:35;150523.97;;;6.88;100.00
44926;BME280;30662;51.210;7.656;2023-02-19T05:09:00;150492.44;;;6.75;100.00
44926;BME280;30662;51.210;7.656;2023-02-19T05:11:26;150507.59;;;6.81;100.00
44926;BME280;30662;51.210;7.656;2023-02-19T05:13:54;150505.03;;;6.80;100.00
44926;BME280;30662;51.210;7.656;2023-02-19T05:16:20;150517.66;;;6.85;100.00
44926;BME280;30662;51.210;7.656;2023-02-19T05:18:46;150507.59;;;6.81;100.00
44926;BME280;30662;51.210;7.656;2023-02-19T05:21:12;150534.06;;;6.92;100.00
44926;BME280;30662;51.210;7.656;2023-02-19T05:23:38;150522.69;;;6.87;100.00
44926;BME280;30662;51.210;7.656;2023-02-19T05:26:06;150526.53;;;6.89;100.00
44926;BME280;30662;51.210;7.656;2023-02-19T05:28:32;150493.69;;;6.76;100.00
44926;BME280;30662;51.210;7.656;2023-02-19T05:31:03;150506.34;;;6.81;100.00
44926;BME280;30662;51.210;7.656;2023-02-19T05:33:29;150503.75;;;6.80;100.00
44926;BME280;30662;51.210;7.656;2023-02-19T05:35:55;150469.69;;;6.66;100.00
44926;BME280;30662;51.210;7.656;2023-02-19T05:38:22;150489.91;;;6.74;100.00
44926;BME280;30662;51.210;7.656;2023-02-19T05:40:48;150494.94;;;6.76;100.00
44926;BME280;30662;51.210;7.656;2023-02-19T05:43:14;150497.47;;;6.77;100.00
44926;BME280;30662;51.210;7.656;2023-02-19T05:45:41;150500.00;;;6.78;100.00
44926;BME280;30662;51.210;7.656;2023-02-19T05:48:08;150510.09;;;6.82;100.00
44926;BME280;30662;51.210;7.656;2023-02-19T05:50:35;150501.25;;;6.79;100.00
44926;BME280;30662;51.210;7.656;2023-02-19T05:53:04;150484.84;;;6.72;100.00
44926;BME280;30662;51.210;7.656;2023-02-19T05:55:34;150487.34;;;6.73;100.00
44926;BME280;30662;51.210;7.656;2023-02-19T05:58:00;150467.16;;;6.65;100.00
44926;BME280;30662;51.210;7.656;2023-02-19T06:00:29;150483.56;;;6.72;100.00
44926;BME280;30662;51.210;7.656;2023-02-19T06:02:55;150459.59;;;6.62;100.00
44926;BME280;30662;51.210;7.656;2023-02-19T06:05:20;150493.69;;;6.76;100.00
44926;BME280;30662;51.210;7.656;2023-02-19T06:07:46;150479.78;;;6.70;100.00
44926;BME280;30662;51.210;7.656;2023-02-19T06:10:15;150491.19;;;6.75;100.00
44926;BME280;30662;51.210;7.656;2023-02-19T06:12:41;150476.03;;;6.69;100.00
44926;BME280;30662;51.210;7.656;2023-02-19T06:15:07;150440.69;;;6.54;100.00
44926;BME280;30662;51.210;7.656;2023-02-19T06:17:34;150472.25;;;6.67;100.00
44926;BME280;30662;51.210;7.656;2023-02-19T06:20:00;150457.09;;;6.61;100.00
44926;BME280;30662;51.210;7.656;2023-02-19T06:22:26;150472.25;;;6.67;100.00
44926;BME280;30662;51.210;7.656;2023-02-19T06:24:52;150462.13;;;6.63;100.00
44926;BME280;30662;51.210;7.656;2023-02-19T06:27:19;150457.09;;;6.61;100.00
44926;BME280;30662;51.210;7.656;2023-02-19T06:29:44;150455.84;;;6.60;100.00
44926;BME280;30662;51.210;7.656;2023-02-19T06:32:10;150443.19;;;6.55;100.00
44926;BME280;30662;51.210;7.656;2023-02-19T06:34:36;150445.72;;;6.56;100.00
44926;BME280;30662;51.210;7.656;2023-02-19T06:37:02;150460.88;;;6.62;100.00
44926;BME280;30662;51.210;7.656;2023-02-19T06:39:28;150439.41;;;6.54;100.00
44926;BME280;30662;51.210;7.656;2023-02-19T06:41:55;150449.50;;;6.58;100.00
44926;BME280;30662;51.210;7.656;2023-02-19T06:44:24;150452.00;;;6.59;100.00
44926;BME280;30662;51.210;7.656;2023-02-19T06:46:53;150450.75;;;6.58;100.00
44926;BME280;30662;51.210;7.656;2023-02-19T06:49:20;150399.03;;;6.38;100.00
44926;BME280;30662;51.210;7.656;2023-02-19T06:51:46;150448.22;;;6.57;100.00
44926;BME280;30662;51.210;7.656;2023-02-19T06:54:12;150460.88;;;6.62;100.00
44926;BME280;30662;51.210;7.656;2023-02-19T06:56:38;150457.09;;;6.61;100.00
44926;BME280;30662;51.210;7.656;2023-02-19T06:59:07;150465.91;;;6.64;100.00
44926;BME280;30662;51.210;7.656;2023-02-19T07:01:34;150438.16;;;6.53;100.00
44926;BME280;30662;51.210;7.656;2023-02-19T07:04:01;150434.38;;;6.52;100.00
44926;BME280;30662;51.210;7.656;2023-02-19T07:06:27;150407.84;;;6.41;100.00
44926;BME280;30662;51.210;7.656;2023-02-19T07:08:54;150417.97;;;6.45;100.00
44926;BME280;30662;51.210;7.656;2023-02-19T07:11:21;150416.72;;;6.45;100.00
44926;BME280;30662;51.210;7.656;2023-02-19T07:13:46;150410.38;;;6.42;100.00
44926;BME280;30662;51.210;7.656;2023-02-19T07:16:12;150435.63;;;6.52;100.00
44926;BME280;30662;51.210;7.656;2023-02-19T07:18:39;150438.16;;;6.53;100.00
44926;BME280;30662;51.210;7.656;2023-02-19T07:21:07;150423.00;;;6.47;100.00
44926;BME280;30662;51.210;7.656;2023-02-19T07:23:34;150467.16;;;6.65;100.00
44926;BME280;30662;51.210;7.656;2023-02-19T07:26:01;150462.13;;;6.63;100.00
44926;BME280;30662;51.210;7.656;2023-02-19T07:28:27;150484.84;;;6.72;100.00
44926;BME280;30662;51.210;7.656;2023-02-19T07:30:53;150443.19;;;6.55;100.00
44926;BME280;30662;51.210;7.656;2023-02-19T07:33:19;150446.97;;;6.57;100.00
44926;BME280;30662;51.210;7.656;2023-02-19T07:35:49;150431.81;;;6.51;100.00
44926;BME280;30662;51.210;7.656;2023-02-19T07:38:16;150426.78;;;6.49;100.00
44926;BME280;30662;51.210;7.656;2023-02-19T07:40:55;150415.41;;;6.44;100.00
44926;BME280;30662;51.210;7.656;2023-02-19T07:43:23;150400.31;;;6.38;100.00
44926;BME280;30662;51.210;7.656;2023-02-19T07:45:49;150375.03;;;6.28;100.00
44926;BME280;30662;51.210;7.656;2023-02-19T07:48:16;150402.81;;;6.39;100.00
44926;BME280;30662;51.210;7.656;2023-02-19T07:50:49;150425.53;;;6.48;100.00
44926;BME280;30662;51.210;7.656;2023-02-19T07:53:15;150434.38;;;6.52;100.00
44926;BME280;30662;51.210;7.656;2023-02-19T07:55:41;150406.59;;;6.41;100.00
44926;BME280;30662;51.210;7.656;2023-02-19T07:58:07;150402.81;;;6.39;100.00
44926;BME280;30662;51.210;7.656;2023-02-19T08:00:33;150392.69;;;6.35;100.00
44926;BME280;30662;51.210;7.656;2023-02-19T08:02:58;150385.16;;;6.32;100.00
44926;BME280;30662;51.210;7.656;2023-02-19T08:05:26;150397.72;;;6.37;100.00
44926;BME280;30662;51.210;7.656;2023-02-19T08:07:52;150363.72;;;6.23;100.00
44926;BME280;30662;51.210;7.656;2023-02-19T08:10:18;150367.50;;;6.25;100.00
44926;BME280;30662;51.210;7.656;2023-02-19T08:13:03;150381.38;;;6.30;100.00
44926;BME280;30662;51.210;7.656;2023-02-19T08:15:45;150387.66;;;6.33;100.00
44926;BME280;30662;51.210;7.656;2023-02-19T08:18:12;150385.16;;;6.32;100.00
44926;BME280;30662;51.210;7.656;2023-02-19T08:20:38;150393.97;;;6.35;100.00
44926;BME280;30662;51.210;7.656;2023-02-19T08:23:05;150395.22;;;6.36;100.00
44926;BME280;30662;51.210;7.656;2023-02-19T08:25:32;150412.88;;;6.43;100.00
44926;BME280;30662;51.210;7.656;2023-02-19T08:27:58;150404.06;;;6.40;100.00
44926;BME280;30662;51.210;7.656;2023-02-19T08:30:26;150416.72;;;6.45;100.00
44926;BME280;30662;51.210;7.656;2023-02-19T08:32:52;150415.41;;;6.44;100.00
44926;BME280;30662;51.210;7.656;2023-02-19T08:35:18;150414.16;;;6.44;100.00
44926;BME280;30662;51.210;7.656;2023-02-19T08:37:45;150407.84;;;6.41;100.00
44926;BME280;30662;51.210;7.656;2023-02-19T08:40:11;150393.97;;;6.35;100.00
44926;BME280;30662;51.210;7.656;2023-02-19T08:42:37;150431.81;;;6.51;100.00
44926;BME280;30662;51.210;7.656;2023-02-19T08:45:03;150428.03;;;6.49;100.00
44926;BME280;30662;51.210;7.656;2023-02-19T08:47:29;150433.06;;;6.51;100.00
44926;BME280;30662;51.210;7.656;2023-02-19T08:49:55;150435.63;;;6.52;100.00
44926;BME280;30662;51.210;7.656;2023-02-19T08:52:21;150478.53;;;6.70;100.00
44926;BME280;30662;51.210;7.656;2023-02-19T08:54:47;150457.09;;;6.61;100.00
44926;BME280;30662;51.210;7.656;2023-02-19T08:57:13;150472.25;;;6.67;100.00
44926;BME280;30662;51.210;7.656;2023-02-19T08:59:39;150426.78;;;6.49;100.00
44926;BME280;30662;51.210;7.656;2023-02-19T09:02:05;150445.72;;;6.56;100.00
44926;BME280;30662;51.210;7.656;2023-02-19T09:04:31;150426.78;;;6.49;100.00
44926;BME280;30662;51.210;7.656;2023-02-19T09:06:57;150425.53;;;6.48;100.00
44926;BME280;30662;51.210;7.656;2023-02-19T09:09:23;150421.75;;;6.47;100.00
44926;BME280;30662;51.210;7.656;2023-02-19T09:11:49;150439.41;;;6.54;100.00
44926;BME280;30662;51.210;7.656;2023-02-19T09:14:15;150448.22;;;6.57;100.00
44926;BME280;30662;51.210;7.656;2023-02-19T09:16:41;150455.84;;;6.60;100.00
44926;BME280;30662;51.210;7.656;2023-02-19T09:19:06;150459.59;;;6.62;100.00
44926;BME280;30662;51.210;7.656;2023-02-19T09:21:32;150470.97;;;6.67;100.00
44926;BME280;30662;51.210;7.656;2023-02-19T09:23:58;150482.31;;;6.71;100.00
44926;BME280;30662;51.210;7.656;2023-02-19T09:26:24;150494.94;;;6.76;100.00
44926;BME280;30662;51.210;7.656;2023-02-19T09:28:50;150483.56;;;6.72;100.00
44926;BME280;30662;51.210;7.656;2023-02-19T09:31:16;150488.66;;;6.74;100.00
44926;BME280;30662;51.210;7.656;2023-02-19T09:33:43;150503.75;;;6.80;100.00
44926;BME280;30662;51.210;7.656;2023-02-19T09:36:10;150482.31;;;6.71;100.00
44926;BME280;30662;51.210;7.656;2023-02-19T09:38:37;150449.50;;;6.58;100.00
44926;BME280;30662;51.210;7.656;2023-02-19T09:41:14;150445.72;;;6.56;100.00
44926;BME280;30662;51.210;7.656;2023-02-19T09:43:42;150435.63;;;6.52;100.00
44926;BME280;30662;51.210;7.656;2023-02-19T09:46:32;150481.06;;;6.71;100.00
44926;BME280;30662;51.210;7.656;2023-02-19T09:49:05;150479.78;;;6.70;100.00
44926;BME280;30662;51.210;7.656;2023-02-19T09:51:35;150482.31;;;6.71;100.00
44926;BME280;30662;51.210;7.656;2023-02-19T09:54:05;150479.78;;;6.70;100.00
44926;BME280;30662;51.210;7.656;2023-02-19T09:56:34;150522.69;;;6.87;100.00
44926;BME280;30662;51.210;7.656;2023-02-19T09:59:01;150506.34;;;6.81;100.00
44926;BME280;30662;51.210;7.656;2023-02-19T10:01:31;150470.97;;;6.67;100.00
44926;BME280;30662;51.210;7.656;2023-02-19T10:04:02;150459.59;;;6.62;100.00
44926;BME280;30662;51.210;7.656;2023-02-19T10:06:28;150491.19;;;6.75;100.00
44926;BME280;30662;51.210;7.656;2023-02-19T10:09:04;150544.19;;;6.96;100.00
44926;BME280;30662;51.210;7.656;2023-02-19T10:11:36;150530.31;;;6.90;100.00
44926;BME280;30662;51.210;7.656;2023-02-19T10:14:03;150573.22;;;7.08;100.00
44926;BME280;30662;51.210;7.656;2023-02-19T10:16:35;150565.66;;;7.05;100.00
44926;BME280;30662;51.210;7.656;2023-02-19T10:19:08;150571.94;;;7.07;100.00
44926;BME280;30662;51.210;7.656;2023-02-19T10:21:35;150547.97;;;6.98;100.00
44926;BME280;30662;51.210;7.656;2023-02-19T10:24:04;150532.81;;;6.91;100.00
44926;BME280;30662;51.210;7.656;2023-02-19T10:26:30;150540.38;;;6.95;100.00
44926;BME280;30662;51.210;7.656;2023-02-19T10:29:00;150540.38;;;6.95;100.00
44926;BME280;30662;51.210;7.656;2023-02-19T10:31:26;150516.41;;;6.85;100.00
44926;BME280;30662;51.210;7.656;2023-02-19T10:33:57;150526.53;;;6.89;100.00
44926;BME280;30662;51.210;7.656;2023-02-19T10:36:35;150529.03;;;6.90;100.00
44926;BME280;30662;51.210;7.656;2023-02-19T10:41:48;150549.25;;;6.98;100.00
44926;BME280;30662;51.210;7.656;2023-02-19T10:44:21;150551.75;;;6.99;100.00
44926;BME280;30662;51.210;7.656;2023-02-19T10:46:51;150588.38;;;7.14;100.00
44926;BME280;30662;51.210;7.656;2023-02-19T10:49:37;150575.72;;;7.09;100.00
44926;BME280;30662;51.210;7.656;2023-02-19T10:52:19;150569.44;;;7.06;100.00
44926;BME280;30662;51.210;7.656;2023-02-19T10:54:52;150566.91;;;7.05;100.00
44926;BME280;30662;51.210;7.656;2023-02-19T10:59:49;150553.00;;;7.00;100.00
44926;BME280;30662;51.210;7.656;2023-02-19T11:02:17;150542.94;;;6.96;100.00
44926;BME280;30662;51.210;7.656;2023-02-19T11:05:04;150532.81;;;6.91;100.00
44926;BME280;30662;51.210;7.656;2023-02-19T11:07:31;150549.25;;;6.98;100.00
44926;BME280;30662;51.210;7.656;2023-02-19T11:09:58;150595.97;;;7.17;100.00
44926;BME280;30662;51.210;7.656;2023-02-19T11:12:29;150625.00;;;7.29;100.00
44926;BME280;30662;51.210;7.656;2023-02-19T11:15:18;150660.34;;;7.43;100.00
44926;BME280;30662;51.210;7.656;2023-02-19T11:17:53;150619.94;;;7.27;100.00
44926;BME280;30662;51.210;7.656;2023-02-19T11:20:19;150640.16;;;7.35;100.00
44926;BME280;30662;51.210;7.656;2023-02-19T11:22:46;150641.41;;;7.35;100.00
44926;BME280;30662;51.210;7.656;2023-02-19T11:28:06;150651.53;;;7.39;100.00
44926;BME280;30662;51.210;7.656;2023-02-19T11:30:41;150659.09;;;7.42;100.00
44926;BME280;30662;51.210;7.656;2023-02-19T11:35:48;150569.44;;;7.06;100.00
44926;BME280;30662;51.210;7.656;2023-02-19T11:38:16;150598.50;;;7.18;100.00
44926;BME280;30662;51.210;7.656;2023-02-19T11:52:38;150541.63;;;6.95;100.00
44926;BME280;30662;51.210;7.656;2023-02-19T11:55:20;150550.50;;;6.99;100.00
44926;BME280;30662;51.210;7.656;2023-02-19T12:11:58;150665.38;;;7.45;100.00
44926;BME280;30662;51.210;7.656;2023-02-19T12:14:49;150651.53;;;7.39;100.00
44926;BME280;30662;51.210;7.656;2023-02-19T12:22:59;150695.72;;;7.57;100.00
44926;BME280;30662;51.210;7.656;2023-02-19T12:26:05;150718.44;;;7.66;100.00
44926;BME280;30662;51.210;7.656;2023-02-19T12:37:29;150647.72;;;7.38;100.00
44926;BME280;30662;51.210;7.656;2023-02-19T12:40:24;150670.47;;;7.47;100.00
44926;BME280;30662;51.210;7.656;2023-02-19T12:42:56;150662.88;;;7.44;100.00
44926;BME280;30662;51.210;7.656;2023-02-19T12:45:37;150599.75;;;7.18;100.00
44926;BME280;30662;51.210;7.656;2023-02-19T12:48:12;150607.31;;;7.22;100.00
44926;BME280;30662;51.210;7.656;2023-02-19T12:50:42;150633.84;;;7.32;100.00
44926;BME280;30662;51.210;7.656;2023-02-19T12:53:23;150626.25;;;7.29;100.00
44926;BME280;30662;51.210;7.656;2023-02-19T12:55:51;150613.59;;;7.24;100.00
44926;BME280;30662;51.210;7.656;2023-02-19T12:58:47;150633.84;;;7.32;100.00
44926;BME280;30662;51.210;7.656;2023-02-19T13:01:23;150635.13;;;7.33;100.00
44926;BME280;30662;51.210;7.656;2023-02-19T13:04:17;150606.06;;;7.21;100.00
44926;BME280;30662;51.210;7.656;2023-02-19T13:06:52;150603.53;;;7.20;100.00
44926;BME280;30662;51.210;7.656;2023-02-19T13:09:29;150618.69;;;7.26;100.00
44926;BME280;30662;51.210;7.656;2023-02-19T13:12:02;150618.69;;;7.26;100.00
44926;BME280;30662;51.210;7.656;2023-02-19T13:14:38;150619.94;;;7.27;100.00
44926;BME280;30662;51.210;7.656;2023-02-19T13:17:19;150595.97;;;7.17;100.00
44926;BME280;30662;51.210;7.656;2023-02-19T13:19:49;150583.34;;;7.12;100.00
44926;BME280;30662;51.210;7.656;2023-02-19T13:22:26;150594.66;;;7.16;100.00
44926;BME280;30662;51.210;7.656;2023-02-19T13:25:14;150558.06;;;7.02;100.00
44926;BME280;30662;51.210;7.656;2023-02-19T13:28:18;150568.19;;;7.06;100.00
44926;BME280;30662;51.210;7.656;2023-02-19T13:33:46;150539.13;;;6.94;100.00
44926;BME280;30662;51.210;7.656;2023-02-19T13:36:25;150520.19;;;6.86;100.00
44926;BME280;30662;51.210;7.656;2023-02-19T13:38:53;150527.78;;;6.89;100.00
44926;BME280;30662;51.210;7.656;2023-02-19T13:41:27;150526.53;;;6.89;100.00
44926;BME280;30662;51.210;7.656;2023-02-19T13:43:58;150522.69;;;6.87;100.00
44926;BME280;30662;51.210;7.656;2023-02-19T13:46:36;150546.72;;;6.97;100.00
44926;BME280;30662;51.210;7.656;2023-02-19T13:51:51;150517.66;;;6.85;100.00
44926;BME280;30662;51.210;7.656;2023-02-19T13:54:29;150481.06;;;6.71;100.00
44926;BME280;30662;51.210;7.656;2023-02-19T13:59:43;150494.94;;;6.76;100.00
44926;BME280;30662;51.210;7.656;2023-02-19T14:04:50;150500.00;;;6.78;100.00
44926;BME280;30662;51.210;7.656;2023-02-19T14:09:50;150510.09;;;6.82;100.00
44926;BME280;30662;51.210;7.656;2023-02-19T14:12:19;150479.78;;;6.70;100.00
44926;BME280;30662;51.210;7.656;2023-02-19T14:14:52;150479.78;;;6.70;100.00
44926;BME280;30662;51.210;7.656;2023-02-19T14:28:29;150516.41;;;6.85;100.00
44926;BME280;30662;51.210;7.656;2023-02-19T14:33:34;150458.34;;;6.61;100.00